createdAt,value
2018-07-03T00:00:10.980Z,4.00
2018-07-03T00:01:10.994Z,4.00
2018-07-03T00:02:11.013Z,4.00
2018-07-03T00:03:11.037Z,4.00
2018-07-03T00:04:11.061Z,4.00
2018-07-03T00:05:11.079Z,4.00
2018-07-03T00:06:11.105Z,4.00
2018-07-03T00:07:11.127Z,4.00
2018-07-03T00:08:11.146Z,4.00
2018-07-03T00:09:11.168Z,4.00
2018-07-03T00:10:11.193Z,4.00
2018-07-03T00:11:11.212Z,4.00
2018-07-03T00:12:11.234Z,4.00
2018-07-03T00:13:11.456Z,4.00
2018-07-03T00:14:11.278Z,4.00
2018-07-03T00:15:11.303Z,4.00
2018-07-03T00:16:11.325Z,4.00
2018-07-03T00:17:11.347Z,4.00
2018-07-03T00:18:11.367Z,4.00
2018-07-03T00:19:11.390Z,4.00
2018-07-03T00:20:11.410Z,4.00
2018-07-03T00:21:11.432Z,4.00
2018-07-03T00:22:11.458Z,4.00
2018-07-03T00:23:11.477Z,4.00
2018-07-03T00:24:11.501Z,4.00
2018-07-03T00:25:11.523Z,4.00
2018-07-03T00:26:11.545Z,4.00
2018-07-03T00:27:11.567Z,4.00
2018-07-03T00:28:11.586Z,4.00
2018-07-03T00:29:11.607Z,4.00
2018-07-03T00:30:11.632Z,4.00
2018-07-03T00:31:11.651Z,4.00
2018-07-03T00:32:11.681Z,4.00
2018-07-03T00:33:11.695Z,4.00
2018-07-03T00:34:11.719Z,4.00
2018-07-03T00:35:11.739Z,4.00
2018-07-03T00:36:11.765Z,4.00
2018-07-03T00:37:11.785Z,4.00
2018-07-03T00:38:11.807Z,4.00
2018-07-03T00:39:11.830Z,4.00
2018-07-03T00:40:11.850Z,4.00
2018-07-03T00:41:11.872Z,4.00
2018-07-03T00:42:11.893Z,4.00
2018-07-03T00:43:11.914Z,4.00
2018-07-03T00:44:11.943Z,4.00
2018-07-03T00:45:11.957Z,4.00
2018-07-03T00:46:11.983Z,4.00
2018-07-03T00:47:12.005Z,4.00
2018-07-03T00:48:12.027Z,4.00
2018-07-03T00:49:12.048Z,4.00
2018-07-03T00:50:12.067Z,4.00
2018-07-03T00:51:12.092Z,4.00
2018-07-03T00:52:12.112Z,4.00
2018-07-03T00:53:12.137Z,4.00
2018-07-03T00:54:12.155Z,4.00
2018-07-03T00:55:12.179Z,4.00
2018-07-03T00:56:12.199Z,4.00
2018-07-03T00:57:12.222Z,4.00
2018-07-03T00:58:12.245Z,4.00
2018-07-03T00:59:12.267Z,4.00
2018-07-03T01:00:12.288Z,4.00
2018-07-03T01:01:12.306Z,4.00
2018-07-03T01:02:12.334Z,4.00
2018-07-03T01:03:12.354Z,4.00
2018-07-03T01:04:12.373Z,4.00
2018-07-03T01:05:12.396Z,4.00
2018-07-03T01:06:12.415Z,4.00
2018-07-03T01:07:12.441Z,4.00
2018-07-03T01:08:12.460Z,4.00
2018-07-03T01:09:12.482Z,4.00
2018-07-03T01:10:12.505Z,4.00
2018-07-03T01:11:12.524Z,4.00
2018-07-03T01:12:12.546Z,4.00
2018-07-03T01:13:12.567Z,4.00
2018-07-03T01:14:12.590Z,4.00
2018-07-03T01:15:12.611Z,4.00
2018-07-03T01:16:12.635Z,4.00
2018-07-03T01:17:12.655Z,4.00
2018-07-03T01:18:12.679Z,4.00
2018-07-03T01:19:12.700Z,4.00
2018-07-03T01:20:12.723Z,4.00
2018-07-03T01:21:12.744Z,4.00
2018-07-03T01:22:12.764Z,4.00
2018-07-03T01:23:12.787Z,4.00
2018-07-03T01:24:12.812Z,4.00
2018-07-03T01:25:12.828Z,4.00
2018-07-03T01:26:12.852Z,4.00
2018-07-03T01:27:12.876Z,4.00
2018-07-03T01:28:12.893Z,4.00
2018-07-03T01:29:12.914Z,4.00
2018-07-03T01:30:12.937Z,4.00
2018-07-03T01:31:12.957Z,4.00
2018-07-03T01:32:12.982Z,4.00
2018-07-03T01:33:13.003Z,4.00
2018-07-03T01:34:13.042Z,4.00
2018-07-03T01:35:13.045Z,4.00
2018-07-03T01:36:13.126Z,4.00
2018-07-03T01:37:13.087Z,4.00
2018-07-03T01:38:13.108Z,4.00
2018-07-03T01:39:13.134Z,4.00
2018-07-03T01:40:13.152Z,4.00
2018-07-03T01:41:13.173Z,4.00
2018-07-03T01:42:13.198Z,4.00
2018-07-03T01:43:13.220Z,4.00
2018-07-03T01:44:13.239Z,4.00
2018-07-03T01:45:13.262Z,4.00
2018-07-03T01:46:13.282Z,4.00
2018-07-03T01:47:13.305Z,4.00
2018-07-03T01:48:13.324Z,4.00
2018-07-03T01:49:13.346Z,4.00
2018-07-03T01:50:13.369Z,4.00
2018-07-03T01:51:13.393Z,4.00
2018-07-03T01:52:13.417Z,4.00
2018-07-03T01:53:13.434Z,4.00
2018-07-03T01:54:13.455Z,4.00
2018-07-03T01:55:13.477Z,4.00
2018-07-03T01:56:13.499Z,4.00
2018-07-03T01:57:13.518Z,4.00
2018-07-03T01:58:13.539Z,4.00
2018-07-03T01:59:13.560Z,4.00
2018-07-03T02:00:13.581Z,4.00
2018-07-03T02:01:13.601Z,4.00
2018-07-03T02:02:13.627Z,4.00
2018-07-03T02:03:13.650Z,4.00
2018-07-03T02:04:13.669Z,4.00
2018-07-03T02:05:13.733Z,4.00
2018-07-03T02:06:13.709Z,4.00
2018-07-03T02:07:13.735Z,4.00
2018-07-03T02:08:13.753Z,4.00
2018-07-03T02:09:13.774Z,4.00
2018-07-03T02:10:13.795Z,4.00
2018-07-03T02:11:13.820Z,4.00
2018-07-03T02:12:13.842Z,4.00
2018-07-03T02:13:13.863Z,4.00
2018-07-03T02:14:13.884Z,4.00
2018-07-03T02:15:13.906Z,4.00
2018-07-03T02:16:13.927Z,4.00
2018-07-03T02:17:13.944Z,4.00
2018-07-03T02:18:13.972Z,4.00
2018-07-03T02:19:13.988Z,4.00
2018-07-03T02:20:14.009Z,4.00
2018-07-03T02:21:14.033Z,4.00
2018-07-03T02:22:14.054Z,4.00
2018-07-03T02:23:14.073Z,4.00
2018-07-03T02:24:14.098Z,4.00
2018-07-03T02:25:14.115Z,4.00
2018-07-03T02:26:14.140Z,4.00
2018-07-03T02:27:14.161Z,4.00
2018-07-03T02:28:14.181Z,8.00
2018-07-03T02:29:14.199Z,8.00
2018-07-03T02:30:14.223Z,8.00
2018-07-03T02:31:14.246Z,8.00
2018-07-03T02:32:14.267Z,8.00
2018-07-03T02:33:14.285Z,4.00
2018-07-03T02:34:14.308Z,4.00
2018-07-03T02:35:14.330Z,8.00
2018-07-03T02:36:14.353Z,8.00
2018-07-03T02:37:14.371Z,8.00
2018-07-03T02:38:14.390Z,4.00
2018-07-03T02:39:14.423Z,8.00
2018-07-03T02:40:14.433Z,8.00
2018-07-03T02:41:14.457Z,8.00
2018-07-03T02:42:14.476Z,8.00
2018-07-03T02:43:14.498Z,8.00
2018-07-03T02:44:14.521Z,12.00
2018-07-03T02:45:14.538Z,12.00
2018-07-03T02:46:14.563Z,12.00
2018-07-03T02:47:14.584Z,12.00
2018-07-03T02:48:14.603Z,16.00
2018-07-03T02:49:14.625Z,16.00
2018-07-03T02:50:14.646Z,12.00
2018-07-03T02:51:14.677Z,12.00
2018-07-03T02:52:14.689Z,16.00
2018-07-03T02:53:14.709Z,20.00
2018-07-03T02:54:14.730Z,20.00
2018-07-03T02:55:14.752Z,24.00
2018-07-03T02:56:14.776Z,24.00
2018-07-03T02:57:14.789Z,28.00
2018-07-03T02:58:14.815Z,28.00
2018-07-03T02:59:14.843Z,32.00
2018-07-03T03:00:14.854Z,36.00
2018-07-03T03:01:14.873Z,40.00
2018-07-03T03:02:14.895Z,44.00
2018-07-03T03:03:14.920Z,52.00
2018-07-03T03:04:14.939Z,56.00
2018-07-03T03:05:14.960Z,60.00
2018-07-03T03:06:14.980Z,68.00
2018-07-03T03:07:15.000Z,72.00
2018-07-03T03:08:15.081Z,76.00
2018-07-03T03:09:15.043Z,84.00
2018-07-03T03:10:15.061Z,88.00
2018-07-03T03:11:15.085Z,96.00
2018-07-03T03:12:15.106Z,104.00
2018-07-03T03:13:15.127Z,112.00
2018-07-03T03:14:15.145Z,120.00
2018-07-03T03:15:15.168Z,132.00
2018-07-03T03:16:15.188Z,136.00
2018-07-03T03:17:15.211Z,148.00
2018-07-03T03:18:15.228Z,156.00
2018-07-03T03:19:15.248Z,164.00
2018-07-03T03:20:15.275Z,176.00
2018-07-03T03:21:15.289Z,188.00
2018-07-03T03:22:15.319Z,200.00
2018-07-03T03:23:15.333Z,212.00
2018-07-03T03:24:15.353Z,224.00
2018-07-03T03:25:15.375Z,232.00
2018-07-03T03:26:15.393Z,244.00
2018-07-03T03:27:15.415Z,260.00
2018-07-03T03:28:15.444Z,272.00
2018-07-03T03:29:15.459Z,284.00
2018-07-03T03:30:15.482Z,292.00
2018-07-03T03:31:15.498Z,308.00
2018-07-03T03:32:15.521Z,320.00
2018-07-03T03:33:15.541Z,336.00
2018-07-03T03:34:15.562Z,348.00
2018-07-03T03:35:15.582Z,360.00
2018-07-03T03:36:15.603Z,376.00
2018-07-03T03:37:15.625Z,388.00
2018-07-03T03:38:15.647Z,400.00
2018-07-03T03:39:15.666Z,416.00
2018-07-03T03:40:15.686Z,428.00
2018-07-03T03:41:15.705Z,444.00
2018-07-03T03:42:15.731Z,460.00
2018-07-03T03:43:15.748Z,472.00
2018-07-03T03:44:15.769Z,484.00
2018-07-03T03:45:15.939Z,500.00
2018-07-03T03:46:15.812Z,512.00
2018-07-03T03:47:15.834Z,528.00
2018-07-03T03:48:16.004Z,544.00
2018-07-03T03:49:15.872Z,556.00
2018-07-03T03:50:15.893Z,568.00
2018-07-03T03:51:15.964Z,584.00
2018-07-03T03:52:15.937Z,596.00
2018-07-03T03:53:16.057Z,608.00
2018-07-03T03:54:16.028Z,624.00
2018-07-03T03:55:15.997Z,636.00
2018-07-03T03:56:16.021Z,648.00
2018-07-03T03:57:16.039Z,660.00
2018-07-03T03:58:16.059Z,676.00
2018-07-03T03:59:16.080Z,684.00
2018-07-03T04:00:16.102Z,700.00
2018-07-03T04:01:16.125Z,708.00
2018-07-03T04:02:16.171Z,724.00
2018-07-03T04:03:16.166Z,736.00
2018-07-03T04:04:16.184Z,744.00
2018-07-03T04:05:16.206Z,756.00
2018-07-03T04:06:16.229Z,768.00
2018-07-03T04:07:16.456Z,784.00
2018-07-03T04:08:16.269Z,796.00
2018-07-03T04:09:16.290Z,804.00
2018-07-03T04:10:16.310Z,816.00
2018-07-03T04:11:16.332Z,828.00
2018-07-03T04:12:16.358Z,840.00
2018-07-03T04:13:16.372Z,852.00
2018-07-03T04:14:16.391Z,868.00
2018-07-03T04:15:16.413Z,880.00
2018-07-03T04:16:16.433Z,888.00
2018-07-03T04:17:16.455Z,904.00
2018-07-03T04:18:16.475Z,912.00
2018-07-03T04:19:16.501Z,924.00
2018-07-03T04:20:16.515Z,932.00
2018-07-03T04:21:16.539Z,948.00
2018-07-03T04:22:16.560Z,956.00
2018-07-03T04:23:16.578Z,964.00
2018-07-03T04:24:16.602Z,980.00
2018-07-03T04:25:16.620Z,988.00
2018-07-03T04:26:16.644Z,1000.00
2018-07-03T04:27:16.663Z,1008.00
2018-07-03T04:28:16.684Z,1020.00
2018-07-03T04:29:16.706Z,1036.00
2018-07-03T04:30:16.725Z,1052.00
2018-07-03T04:31:16.745Z,1088.00
2018-07-03T04:32:16.866Z,1092.00
2018-07-03T04:33:16.790Z,1076.00
2018-07-03T04:34:16.809Z,1092.00
2018-07-03T04:35:16.828Z,1100.00
2018-07-03T04:36:16.852Z,1112.00
2018-07-03T04:37:16.873Z,1124.00
2018-07-03T04:38:16.893Z,1132.00
2018-07-03T04:39:16.913Z,1148.00
2018-07-03T04:40:16.936Z,1168.00
2018-07-03T04:41:16.955Z,1184.00
2018-07-03T04:42:16.978Z,1192.00
2018-07-03T04:43:16.996Z,1212.00
2018-07-03T04:44:17.020Z,1240.00
2018-07-03T04:45:17.039Z,1268.00
2018-07-03T04:46:17.061Z,1308.00
2018-07-03T04:47:17.080Z,1344.00
2018-07-03T04:48:17.104Z,1376.00
2018-07-03T04:49:17.121Z,1408.00
2018-07-03T04:50:17.145Z,1428.00
2018-07-03T04:51:17.165Z,1440.00
2018-07-03T04:52:17.185Z,1452.00
2018-07-03T04:53:17.210Z,1460.00
2018-07-03T04:54:17.228Z,1444.00
2018-07-03T04:55:17.249Z,1472.00
2018-07-03T04:56:17.270Z,1472.00
2018-07-03T04:57:17.291Z,1472.00
2018-07-03T04:58:17.315Z,1480.00
2018-07-03T04:59:17.336Z,1488.00
2018-07-03T05:00:17.358Z,1492.00
2018-07-03T05:01:17.377Z,1496.00
2018-07-03T05:02:17.402Z,1500.00
2018-07-03T05:03:17.422Z,1508.00
2018-07-03T05:04:17.439Z,1512.00
2018-07-03T05:05:17.464Z,1512.00
2018-07-03T05:06:17.485Z,1524.00
2018-07-03T05:07:17.506Z,1520.00
2018-07-03T05:08:17.528Z,1528.00
2018-07-03T05:09:17.545Z,1532.00
2018-07-03T05:10:17.568Z,1520.00
2018-07-03T05:11:17.592Z,1536.00
2018-07-03T05:12:17.615Z,1548.00
2018-07-03T05:13:17.631Z,1552.00
2018-07-03T05:14:17.654Z,1560.00
2018-07-03T05:15:17.675Z,1560.00
2018-07-03T05:16:17.699Z,1544.00
2018-07-03T05:17:17.720Z,1572.00
2018-07-03T05:18:17.737Z,1564.00
2018-07-03T05:19:17.763Z,1588.00
2018-07-03T05:20:17.784Z,1576.00
2018-07-03T05:21:17.807Z,1604.00
2018-07-03T05:22:17.823Z,1604.00
2018-07-03T05:23:17.846Z,1640.00
2018-07-03T05:24:17.869Z,1764.00
2018-07-03T05:25:17.889Z,1780.00
2018-07-03T05:26:17.913Z,1708.00
2018-07-03T05:27:17.934Z,1676.00
2018-07-03T05:28:17.953Z,1668.00
2018-07-03T05:29:17.975Z,1660.00
2018-07-03T05:30:17.996Z,1664.00
2018-07-03T05:31:18.061Z,1700.00
2018-07-03T05:32:18.043Z,1660.00
2018-07-03T05:33:18.061Z,1652.00
2018-07-03T05:34:18.087Z,1660.00
2018-07-03T05:35:18.108Z,1652.00
2018-07-03T05:36:18.129Z,1664.00
2018-07-03T05:37:18.239Z,1668.00
2018-07-03T05:38:18.170Z,1676.00
2018-07-03T05:39:18.194Z,1676.00
2018-07-03T05:40:18.214Z,1684.00
2018-07-03T05:41:18.235Z,1708.00
2018-07-03T05:42:18.261Z,1784.00
2018-07-03T05:43:18.283Z,1876.00
2018-07-03T05:44:18.302Z,2196.00
2018-07-03T05:45:18.323Z,2200.00
2018-07-03T05:46:18.348Z,1984.00
2018-07-03T05:47:18.368Z,2492.00
2018-07-03T05:48:18.393Z,3056.00
2018-07-03T05:49:18.416Z,3124.00
2018-07-03T05:50:18.487Z,3144.00
2018-07-03T05:51:18.455Z,3160.00
2018-07-03T05:52:18.935Z,3172.00
2018-07-03T05:53:18.503Z,3188.00
2018-07-03T05:54:18.524Z,3212.00
2018-07-03T05:55:18.693Z,3192.00
2018-07-03T05:56:18.725Z,3224.00
2018-07-03T05:57:18.593Z,3228.00
2018-07-03T05:58:18.614Z,3228.00
2018-07-03T05:59:18.638Z,3252.00
2018-07-03T06:00:18.659Z,3256.00
2018-07-03T06:01:18.684Z,3252.00
2018-07-03T06:02:18.708Z,3248.00
2018-07-03T06:03:18.732Z,3276.00
2018-07-03T06:04:18.752Z,3272.00
2018-07-03T06:05:18.775Z,3296.00
2018-07-03T06:06:18.801Z,3300.00
2018-07-03T06:07:18.823Z,3304.00
2018-07-03T06:08:18.855Z,3324.00
2018-07-03T06:09:18.891Z,3328.00
2018-07-03T06:10:18.897Z,3348.00
2018-07-03T06:11:18.918Z,3380.00
2018-07-03T06:12:19.154Z,3404.00
2018-07-03T06:13:18.968Z,3452.00
2018-07-03T06:14:18.990Z,3480.00
2018-07-03T06:15:19.018Z,3528.00
2018-07-03T06:16:19.043Z,3568.00
2018-07-03T06:17:19.069Z,3620.00
2018-07-03T06:18:19.090Z,3644.00
2018-07-03T06:19:19.117Z,3712.00
2018-07-03T06:20:19.143Z,3700.00
2018-07-03T06:21:19.167Z,3748.00
2018-07-03T06:22:19.194Z,3776.00
2018-07-03T06:23:19.251Z,3844.00
2018-07-03T06:24:19.240Z,3848.00
2018-07-03T06:25:19.266Z,3928.00
2018-07-03T06:26:19.293Z,3964.00
2018-07-03T06:27:19.317Z,3980.00
2018-07-03T06:28:19.344Z,4056.00
2018-07-03T06:29:19.368Z,4064.00
2018-07-03T06:30:19.396Z,4112.00
2018-07-03T06:31:19.422Z,4184.00
2018-07-03T06:32:19.447Z,4172.00
2018-07-03T06:33:19.475Z,4228.00
2018-07-03T06:34:19.501Z,4252.00
2018-07-03T06:35:19.528Z,4296.00
2018-07-03T06:36:19.551Z,4312.00
2018-07-03T06:37:19.629Z,4312.00
2018-07-03T06:38:19.604Z,4388.00
2018-07-03T06:39:19.632Z,4416.00
2018-07-03T06:40:19.658Z,4436.00
2018-07-03T06:41:19.686Z,4460.00
2018-07-03T06:42:19.713Z,4472.00
2018-07-03T06:43:19.737Z,4448.00
2018-07-03T06:44:19.765Z,4512.00
2018-07-03T06:45:19.793Z,4500.00
2018-07-03T06:46:19.819Z,4512.00
2018-07-03T06:47:19.866Z,4576.00
2018-07-03T06:48:19.873Z,4616.00
2018-07-03T06:49:19.904Z,4640.00
2018-07-03T06:50:19.927Z,4656.00
2018-07-03T06:51:19.955Z,4704.00
2018-07-03T06:52:19.979Z,4772.00
2018-07-03T06:53:20.007Z,4764.00
2018-07-03T06:54:20.034Z,4776.00
2018-07-03T06:55:20.060Z,4788.00
2018-07-03T06:56:20.093Z,4812.00
2018-07-03T06:57:20.113Z,4860.00
2018-07-03T06:58:20.141Z,4908.00
2018-07-03T06:59:20.172Z,4904.00
2018-07-03T07:00:20.199Z,4888.00
2018-07-03T07:01:20.222Z,4928.00
2018-07-03T07:02:20.293Z,4936.00
2018-07-03T07:03:20.278Z,4976.00
2018-07-03T07:04:20.559Z,4952.00
2018-07-03T07:05:20.337Z,5032.00
2018-07-03T07:06:20.368Z,5028.00
2018-07-03T07:07:20.389Z,5044.00
2018-07-03T07:08:20.419Z,5060.00
2018-07-03T07:09:20.602Z,5044.00
2018-07-03T07:10:20.472Z,5076.00
2018-07-03T07:11:20.499Z,5064.00
2018-07-03T07:12:20.527Z,5104.00
2018-07-03T07:13:20.562Z,5136.00
2018-07-03T07:14:20.585Z,5128.00
2018-07-03T07:15:20.815Z,5124.00
2018-07-03T07:16:20.641Z,5140.00
2018-07-03T07:17:20.667Z,5136.00
2018-07-03T07:18:20.697Z,5140.00
2018-07-03T07:19:20.723Z,5160.00
2018-07-03T07:20:20.754Z,5160.00
2018-07-03T07:21:20.782Z,5196.00
2018-07-03T07:22:20.808Z,5260.00
2018-07-03T07:23:20.846Z,5168.00
2018-07-03T07:24:20.869Z,5132.00
2018-07-03T07:25:20.894Z,5020.00
2018-07-03T07:26:20.922Z,5180.00
2018-07-03T07:27:20.954Z,5136.00
2018-07-03T07:28:20.980Z,5048.00
2018-07-03T07:29:21.052Z,4788.00
2018-07-03T07:30:21.041Z,4716.00
2018-07-03T07:31:21.069Z,4772.00
2018-07-03T07:32:21.095Z,4516.00
2018-07-03T07:33:21.123Z,4264.00
2018-07-03T07:34:21.154Z,4100.00
2018-07-03T07:35:21.184Z,4032.00
2018-07-03T07:36:21.214Z,3956.00
2018-07-03T07:37:21.237Z,3864.00
2018-07-03T07:38:21.269Z,3924.00
2018-07-03T07:39:21.297Z,3948.00
2018-07-03T07:40:21.329Z,3984.00
2018-07-03T07:41:21.354Z,3984.00
2018-07-03T07:42:21.381Z,3932.00
2018-07-03T07:43:21.409Z,4156.00
2018-07-03T07:44:21.438Z,3880.00
2018-07-03T07:45:21.466Z,3340.00
2018-07-03T07:46:21.493Z,4144.00
2018-07-03T07:47:21.523Z,4108.00
2018-07-03T07:48:21.558Z,4104.00
2018-07-03T07:49:21.580Z,4140.00
2018-07-03T07:50:21.607Z,4160.00
2018-07-03T07:51:21.635Z,4324.00
2018-07-03T07:52:21.664Z,4228.00
2018-07-03T07:53:21.690Z,4216.00
2018-07-03T07:54:21.716Z,4232.00
2018-07-03T07:55:21.746Z,4576.00
2018-07-03T07:56:21.816Z,4284.00
2018-07-03T07:57:21.801Z,4284.00
2018-07-03T07:58:21.827Z,4320.00
2018-07-03T07:59:21.853Z,4360.00
2018-07-03T08:00:21.945Z,4452.00
2018-07-03T08:01:21.909Z,4360.00
2018-07-03T08:02:21.956Z,4380.00
2018-07-03T08:03:21.966Z,4396.00
2018-07-03T08:04:21.991Z,4416.00
2018-07-03T08:05:22.021Z,4492.00
2018-07-03T08:06:22.047Z,4436.00
2018-07-03T08:07:22.073Z,4472.00
2018-07-03T08:08:22.107Z,4476.00
2018-07-03T08:09:22.127Z,4504.00
2018-07-03T08:10:22.157Z,4520.00
2018-07-03T08:11:22.182Z,4772.00
2018-07-03T08:12:22.211Z,4748.00
2018-07-03T08:13:22.323Z,4752.00
2018-07-03T08:14:22.266Z,4776.00
2018-07-03T08:15:22.291Z,4784.00
2018-07-03T08:16:22.319Z,4800.00
2018-07-03T08:17:22.344Z,4580.00
2018-07-03T08:18:22.375Z,4652.00
2018-07-03T08:19:22.400Z,4840.00
2018-07-03T08:20:22.429Z,4800.00
2018-07-03T08:21:22.456Z,4824.00
2018-07-03T08:22:22.480Z,4832.00
2018-07-03T08:23:22.510Z,4940.00
2018-07-03T08:24:22.538Z,4848.00
2018-07-03T08:25:22.565Z,4928.00
2018-07-03T08:26:22.589Z,4896.00
2018-07-03T08:27:22.621Z,4920.00
2018-07-03T08:28:22.647Z,4904.00
2018-07-03T08:29:22.670Z,4936.00
2018-07-03T08:30:22.698Z,4940.00
2018-07-03T08:31:22.725Z,4852.00
2018-07-03T08:32:22.768Z,4956.00
2018-07-03T08:33:22.781Z,4928.00
2018-07-03T08:34:22.809Z,4964.00
2018-07-03T08:35:22.835Z,4980.00
2018-07-03T08:36:22.865Z,4960.00
2018-07-03T08:37:22.890Z,5012.00
2018-07-03T08:38:22.916Z,5032.00
2018-07-03T08:39:22.946Z,4968.00
2018-07-03T08:40:22.973Z,5064.00
2018-07-03T08:41:23.000Z,4992.00
2018-07-03T08:42:23.027Z,5088.00
2018-07-03T08:43:23.052Z,5020.00
2018-07-03T08:44:23.083Z,4968.00
2018-07-03T08:45:23.107Z,5040.00
2018-07-03T08:46:23.138Z,5044.00
2018-07-03T08:47:23.161Z,5044.00
2018-07-03T08:48:23.210Z,5068.00
2018-07-03T08:49:23.218Z,5060.00
2018-07-03T08:50:23.246Z,5052.00
2018-07-03T08:51:23.273Z,5060.00
2018-07-03T08:52:23.302Z,5064.00
2018-07-03T08:53:23.329Z,5048.00
2018-07-03T08:54:23.355Z,5088.00
2018-07-03T08:55:23.381Z,5044.00
2018-07-03T08:56:23.411Z,5064.00
2018-07-03T08:57:23.439Z,5112.00
2018-07-03T08:58:23.465Z,5148.00
2018-07-03T08:59:23.491Z,5100.00
2018-07-03T09:00:23.522Z,5112.00
2018-07-03T09:01:23.545Z,5128.00
2018-07-03T09:02:23.575Z,5260.00
2018-07-03T09:03:23.613Z,5064.00
2018-07-03T09:04:23.629Z,5136.00
2018-07-03T09:05:23.657Z,5172.00
2018-07-03T09:06:23.685Z,5084.00
2018-07-03T09:07:23.714Z,4980.00
2018-07-03T09:08:23.744Z,5172.00
2018-07-03T09:09:23.768Z,5112.00
2018-07-03T09:10:23.796Z,5164.00
2018-07-03T09:11:23.836Z,5180.00
2018-07-03T09:12:23.855Z,5140.00
2018-07-03T09:13:24.029Z,5200.00
2018-07-03T09:14:23.906Z,5204.00
2018-07-03T09:15:23.934Z,5212.00
2018-07-03T09:16:23.963Z,5240.00
2018-07-03T09:17:23.989Z,5216.00
2018-07-03T09:18:24.019Z,5256.00
2018-07-03T09:19:24.048Z,5300.00
2018-07-03T09:20:24.073Z,5196.00
2018-07-03T09:21:24.099Z,5228.00
2018-07-03T09:22:24.127Z,5236.00
2018-07-03T09:23:24.155Z,5284.00
2018-07-03T09:24:24.186Z,5512.00
2018-07-03T09:25:24.211Z,5256.00
2018-07-03T09:26:24.245Z,5216.00
2018-07-03T09:27:24.266Z,5236.00
2018-07-03T09:28:24.297Z,5196.00
2018-07-03T09:29:24.322Z,5272.00
2018-07-03T09:30:24.360Z,5220.00
2018-07-03T09:31:24.380Z,5196.00
2018-07-03T09:32:24.405Z,5148.00
2018-07-03T09:33:24.438Z,5168.00
2018-07-03T09:34:24.463Z,5068.00
2018-07-03T09:35:24.491Z,5012.00
2018-07-03T09:36:24.594Z,4980.00
2018-07-03T09:37:24.546Z,4752.00
2018-07-03T09:38:24.576Z,4804.00
2018-07-03T09:39:24.602Z,4808.00
2018-07-03T09:40:24.631Z,4892.00
2018-07-03T09:41:24.655Z,4576.00
2018-07-03T09:42:24.732Z,4460.00
2018-07-03T09:43:24.711Z,4452.00
2018-07-03T09:44:24.741Z,4768.00
2018-07-03T09:45:24.771Z,4832.00
2018-07-03T09:46:24.795Z,4988.00
2018-07-03T09:47:24.826Z,5024.00
2018-07-03T09:48:24.851Z,5056.00
2018-07-03T09:49:24.878Z,5004.00
2018-07-03T09:50:25.011Z,5048.00
2018-07-03T09:51:24.937Z,4988.00
2018-07-03T09:52:24.970Z,5008.00
2018-07-03T09:53:24.990Z,5188.00
2018-07-03T09:54:25.022Z,4992.00
2018-07-03T09:55:25.400Z,4948.00
2018-07-03T09:56:25.077Z,4716.00
2018-07-03T09:57:25.106Z,4392.00
2018-07-03T09:58:25.137Z,4236.00
2018-07-03T09:59:25.170Z,4616.00
2018-07-03T10:00:25.187Z,4276.00
2018-07-03T10:01:25.216Z,4728.00
2018-07-03T10:02:25.244Z,4400.00
2018-07-03T10:03:25.275Z,4788.00
2018-07-03T10:04:25.300Z,5540.00
2018-07-03T10:05:25.372Z,5592.00
2018-07-03T10:06:25.359Z,5708.00
2018-07-03T10:07:25.387Z,5780.00
2018-07-03T10:08:25.412Z,5648.00
2018-07-03T10:09:25.441Z,5772.00
2018-07-03T10:10:25.473Z,5800.00
2018-07-03T10:11:25.496Z,5552.00
2018-07-03T10:12:25.524Z,5560.00
2018-07-03T10:13:25.554Z,5572.00
2018-07-03T10:14:25.580Z,5472.00
2018-07-03T10:15:25.611Z,5512.00
2018-07-03T10:16:25.636Z,5576.00
2018-07-03T10:17:25.666Z,4800.00
2018-07-03T10:18:25.693Z,4796.00
2018-07-03T10:19:25.720Z,4740.00
2018-07-03T10:20:25.752Z,4724.00
2018-07-03T10:21:25.779Z,4844.00
2018-07-03T10:22:25.805Z,4772.00
2018-07-03T10:23:25.833Z,4852.00
2018-07-03T10:24:25.868Z,4728.00
2018-07-03T10:25:25.892Z,4772.00
2018-07-03T10:26:25.919Z,4612.00
2018-07-03T10:27:25.950Z,4640.00
2018-07-03T10:28:25.976Z,4636.00
2018-07-03T10:29:26.004Z,4664.00
2018-07-03T10:30:26.033Z,4696.00
2018-07-03T10:31:26.112Z,4656.00
2018-07-03T10:32:26.089Z,4628.00
2018-07-03T10:33:26.114Z,4616.00
2018-07-03T10:34:26.149Z,4628.00
2018-07-03T10:35:26.171Z,4564.00
2018-07-03T10:36:26.203Z,4516.00
2018-07-03T10:37:26.228Z,4572.00
2018-07-03T10:38:26.258Z,4528.00
2018-07-03T10:39:26.285Z,4540.00
2018-07-03T10:40:26.313Z,4556.00
2018-07-03T10:41:26.344Z,4548.00
2018-07-03T10:42:26.372Z,4556.00
2018-07-03T10:43:26.397Z,4460.00
2018-07-03T10:44:26.428Z,4616.00
2018-07-03T10:45:26.455Z,4476.00
2018-07-03T10:46:26.483Z,4352.00
2018-07-03T10:47:26.510Z,4468.00
2018-07-03T10:48:26.541Z,4356.00
2018-07-03T10:49:26.569Z,4432.00
2018-07-03T10:50:26.596Z,4488.00
2018-07-03T10:51:26.625Z,4276.00
2018-07-03T10:52:26.654Z,4092.00
2018-07-03T10:53:26.678Z,3872.00
2018-07-03T10:54:26.708Z,4276.00
2018-07-03T10:55:26.739Z,4120.00
2018-07-03T10:56:26.763Z,3988.00
2018-07-03T10:57:26.860Z,4288.00
2018-07-03T10:58:26.818Z,4312.00
2018-07-03T10:59:26.908Z,4064.00
2018-07-03T11:00:26.878Z,4028.00
2018-07-03T11:01:26.914Z,4036.00
2018-07-03T11:02:26.933Z,4080.00
2018-07-03T11:03:26.961Z,4116.00
2018-07-03T11:04:26.990Z,4108.00
2018-07-03T11:05:27.018Z,4276.00
2018-07-03T11:06:27.043Z,4088.00
2018-07-03T11:07:27.072Z,4096.00
2018-07-03T11:08:27.101Z,4116.00
2018-07-03T11:09:27.128Z,4080.00
2018-07-03T11:10:27.154Z,4080.00
2018-07-03T11:11:27.185Z,4180.00
2018-07-03T11:12:27.212Z,4068.00
2018-07-03T11:13:27.241Z,4084.00
2018-07-03T11:14:27.266Z,4164.00
2018-07-03T11:15:27.294Z,4176.00
2018-07-03T11:16:27.333Z,4108.00
2018-07-03T11:17:27.350Z,4104.00
2018-07-03T11:18:27.377Z,4104.00
2018-07-03T11:19:27.409Z,4100.00
2018-07-03T11:20:27.435Z,4064.00
2018-07-03T11:21:27.461Z,4572.00
2018-07-03T11:22:27.495Z,4084.00
2018-07-03T11:23:27.521Z,4084.00
2018-07-03T11:24:27.547Z,4084.00
2018-07-03T11:25:27.573Z,4096.00
2018-07-03T11:26:27.601Z,4056.00
2018-07-03T11:27:27.763Z,4056.00
2018-07-03T11:28:27.661Z,4076.00
2018-07-03T11:29:27.685Z,4072.00
2018-07-03T11:30:27.718Z,4040.00
2018-07-03T11:31:27.741Z,4068.00
2018-07-03T11:32:27.772Z,3996.00
2018-07-03T11:33:27.800Z,4004.00
2018-07-03T11:34:27.830Z,3944.00
2018-07-03T11:35:27.855Z,3948.00
2018-07-03T11:36:27.884Z,3992.00
2018-07-03T11:37:27.913Z,4000.00
2018-07-03T11:38:27.986Z,4532.00
2018-07-03T11:39:27.969Z,4032.00
2018-07-03T11:40:28.123Z,4016.00
2018-07-03T11:41:28.201Z,4000.00
2018-07-03T11:42:28.053Z,4008.00
2018-07-03T11:43:28.084Z,3980.00
2018-07-03T11:44:28.109Z,4012.00
2018-07-03T11:45:28.136Z,4016.00
2018-07-03T11:46:28.171Z,4020.00
2018-07-03T11:47:28.191Z,3980.00
2018-07-03T11:48:28.223Z,4028.00
2018-07-03T11:49:28.248Z,4036.00
2018-07-03T11:50:28.278Z,4060.00
2018-07-03T11:51:28.317Z,4032.00
2018-07-03T11:52:28.334Z,4040.00
2018-07-03T11:53:28.380Z,4040.00
2018-07-03T11:54:28.432Z,4052.00
2018-07-03T11:55:28.462Z,4056.00
2018-07-03T11:56:28.450Z,4076.00
2018-07-03T11:57:28.474Z,4088.00
2018-07-03T11:58:28.503Z,4064.00
2018-07-03T11:59:28.531Z,4024.00
2018-07-03T12:00:28.563Z,4124.00
2018-07-03T12:01:28.612Z,4076.00
2018-07-03T12:02:28.619Z,4088.00
2018-07-03T12:03:28.649Z,4240.00
2018-07-03T12:04:28.675Z,4124.00
2018-07-03T12:05:28.702Z,4260.00
2018-07-03T12:06:28.730Z,4328.00
2018-07-03T12:07:28.760Z,4304.00
2018-07-03T12:08:28.789Z,4316.00
2018-07-03T12:09:28.817Z,4296.00
2018-07-03T12:10:28.849Z,4404.00
2018-07-03T12:11:28.874Z,4332.00
2018-07-03T12:12:28.909Z,4336.00
2018-07-03T12:13:28.932Z,4612.00
2018-07-03T12:14:28.963Z,4328.00
2018-07-03T12:15:28.989Z,4332.00
2018-07-03T12:16:29.100Z,4300.00
2018-07-03T12:17:29.050Z,4332.00
2018-07-03T12:18:29.076Z,4304.00
2018-07-03T12:19:29.118Z,4312.00
2018-07-03T12:20:29.139Z,4280.00
2018-07-03T12:21:29.164Z,4304.00
2018-07-03T12:22:29.192Z,4304.00
2018-07-03T12:23:29.223Z,4248.00
2018-07-03T12:24:29.251Z,4280.00